Time;durP1;ratioP1;P1;durP2;ratioP2;P2;SDS_P1;SDS_P2;PMS_P1;PMS_P2;Temp;Humidity;BMP_temperature;BMP_pressure;BME280_temperature;BME280_humidity;BME280_pressure;Samples;Min_cycle;Max_cycle;Signal;HPM_P1;HPM_P2
2022/04/25 00:03:04;;;;;;;6.67;3.52;;;;;;;9.15;92.63;97704.20;4222131;82;22054;-87
2022/04/25 00:09:05;;;;;;;5.83;3.22;;;;;;;9.16;92.23;97696.80;4200531;82;21027;-89
2022/04/25 00:15:08;;;;;;;7.37;3.50;;;;;;;8.94;91.84;97695.31;4211980;82;21108;-88
2022/04/25 00:21:09;;;;;;;5.40;3.05;;;;;;;8.84;91.93;97700.20;4212957;82;21060;-87
2022/04/25 00:27:12;;;;;;;7.00;3.55;;;;;;;8.69;91.85;97706.27;4226001;82;21046;-88
2022/04/25 00:33:15;;;;;;;8.60;4.90;;;;;;;8.55;92.23;97703.57;4208110;82;21080;-89
2022/04/25 00:39:16;;;;;;;9.60;4.60;;;;;;;8.46;92.39;97699.69;4217362;82;21064;-87
2022/04/25 00:45:18;;;;;;;10.05;6.28;;;;;;;8.35;92.18;97711.97;4223585;82;22092;-87
2022/04/25 00:51:21;;;;;;;9.28;5.55;;;;;;;8.01;92.43;97718.95;4202500;82;21077;-90
2022/04/25 00:57:22;;;;;;;10.80;5.65;;;;;;;7.84;92.39;97721.87;4197823;83;21674;-87
2022/04/25 01:03:24;;;;;;;11.70;5.62;;;;;;;7.76;92.34;97719.51;4202613;83;21075;-87
2022/04/25 01:09:25;;;;;;;13.75;6.65;;;;;;;7.61;92.52;97720.05;4205315;83;21060;-88
2022/04/25 01:15:28;;;;;;;10.18;6.28;;;;;;;7.41;92.50;97721.55;4196250;83;21094;-87
2022/04/25 01:21:32;;;;;;;13.90;6.42;;;;;;;7.27;92.47;97711.98;4198633;83;21069;-90
2022/04/25 01:27:35;;;;;;;13.03;6.45;;;;;;;7.03;92.35;97717.33;4194187;83;22469;-89
2022/04/25 01:33:36;;;;;;;8.65;5.42;;;;;;;6.77;92.08;97710.20;4098711;85;21019;-89
2022/04/25 01:39:40;;;;;;;9.60;6.47;;;;;;;6.54;92.04;97722.48;4100448;85;22362;-86
2022/04/25 01:45:42;;;;;;;12.37;7.87;;;;;;;6.40;92.81;97719.09;4100351;85;21082;-87
2022/04/25 01:51:45;;;;;;;12.82;7.70;;;;;;;6.23;92.75;97720.52;4116592;85;21038;-89
2022/04/25 01:57:46;;;;;;;10.58;7.28;;;;;;;6.21;92.93;97715.27;4136859;85;21085;-87
2022/04/25 02:03:48;;;;;;;10.65;6.50;;;;;;;6.19;93.00;97720.29;4135283;84;21524;-93
2022/04/25 02:09:49;;;;;;;14.20;7.83;;;;;;;5.93;92.69;97719.90;4137598;84;21089;-86
2022/04/25 02:15:51;;;;;;;13.58;8.00;;;;;;;5.76;92.75;97723.77;4133198;85;21364;-87
2022/04/25 02:21:53;;;;;;;9.90;6.58;;;;;;;5.67;92.94;97730.09;4233777;82;21077;-88
2022/04/25 02:27:54;;;;;;;12.43;8.30;;;;;;;5.43;92.85;97726.53;4219719;82;21068;-87
2022/04/25 02:33:56;;;;;;;16.05;9.20;;;;;;;5.38;93.29;97741.21;4215623;82;21064;-88
2022/04/25 02:39:57;;;;;;;12.90;7.78;;;;;;;5.30;93.98;97738.21;4238901;82;21047;-87
2022/04/25 02:45:59;;;;;;;11.08;7.08;;;;;;;5.34;94.11;97749.11;4233411;82;21015;-88
2022/04/25 02:52:01;;;;;;;14.30;9.35;;;;;;;5.39;94.20;97746.05;4205158;81;21027;-87
2022/04/25 02:58:02;;;;;;;11.55;8.45;;;;;;;5.45;94.71;97763.59;4157228;83;38765;-88
2022/04/25 03:04:04;;;;;;;14.23;9.33;;;;;;;5.57;95.17;97757.33;4042846;86;21099;-90
2022/04/25 03:10:06;;;;;;;18.92;11.60;;;;;;;5.69;95.38;97767.92;4048814;86;21066;-88
2022/04/25 03:16:07;;;;;;;14.95;9.28;;;;;;;5.77;95.46;97758.70;4044727;86;21077;-89
2022/04/25 03:22:09;;;;;;;23.75;15.13;;;;;;;5.81;95.56;97761.45;4029769;86;21985;-87
2022/04/25 03:28:11;;;;;;;15.68;12.07;;;;;;;5.82;95.62;97757.04;4048932;86;21065;-93
2022/04/25 03:34:12;;;;;;;16.50;10.75;;;;;;;5.90;96.20;97760.59;4048388;86;21030;-90
2022/04/25 03:40:14;;;;;;;13.28;9.15;;;;;;;5.98;95.46;97760.87;4045924;86;21543;-90
2022/04/25 03:46:15;;;;;;;21.85;16.27;;;;;;;6.13;96.81;97766.63;4041896;86;21130;-89
2022/04/25 03:52:16;;;;;;;14.15;11.28;;;;;;;6.22;96.34;97762.44;4032073;86;21385;-88
2022/04/25 03:58:18;;;;;;;17.35;12.50;;;;;;;6.24;96.44;97762.06;4012224;87;22004;-89
2022/04/25 04:04:19;;;;;;;18.48;12.75;;;;;;;6.28;96.51;97765.02;4021789;87;21115;-86
2022/04/25 04:10:21;;;;;;;13.48;10.28;;;;;;;6.24;96.20;97763.42;4021812;87;21125;-89
2022/04/25 04:16:22;;;;;;;16.48;12.98;;;;;;;6.31;96.85;97773.02;4027290;87;21086;-88
2022/04/25 04:22:25;;;;;;;18.90;13.45;;;;;;;6.42;96.97;97774.45;4017893;87;21080;-88
2022/04/25 04:28:27;;;;;;;17.10;11.38;;;;;;;6.48;96.87;97787.31;4013740;87;21170;-88
2022/04/25 04:34:29;;;;;;;22.58;13.78;;;;;;;6.65;97.17;97796.75;4019984;87;21703;-90
2022/04/25 04:40:31;;;;;;;27.85;15.28;;;;;;;6.75;96.90;97803.63;4020609;87;21109;-89
2022/04/25 04:46:33;;;;;;;34.30;21.52;;;;;;;6.75;96.73;97802.26;4028292;87;21950;-88
2022/04/25 04:52:34;;;;;;;41.30;24.87;;;;;;;6.77;97.33;97808.11;4047737;86;21548;-88
2022/04/25 04:58:36;;;;;;;51.00;28.77;;;;;;;6.91;97.87;97806.84;4065268;86;21112;-88
2022/04/25 05:04:38;;;;;;;34.53;20.65;;;;;;;7.08;97.88;97825.82;4071111;86;21102;-89
2022/04/25 05:10:40;;;;;;;38.73;24.02;;;;;;;7.16;97.12;97821.95;4077707;86;21069;-90
2022/04/25 05:16:42;;;;;;;36.15;22.30;;;;;;;7.34;98.04;97828.30;4078941;86;21599;-87
2022/04/25 05:22:46;;;;;;;36.93;21.40;;;;;;;7.48;96.94;97834.59;4066956;86;21109;-87
2022/04/25 05:28:48;;;;;;;29.75;19.48;;;;;;;7.56;97.47;97844.33;4069567;86;21133;-89
2022/04/25 05:34:50;;;;;;;28.65;19.05;;;;;;;7.78;97.85;97854.75;4048881;86;22307;-88
2022/04/25 05:40:52;;;;;;;30.50;18.82;;;;;;;7.91;97.17;97862.77;4070304;86;21091;-87
2022/04/25 05:46:56;;;;;;;27.58;15.50;;;;;;;8.00;97.10;97861.84;4069006;86;21078;-88
2022/04/25 05:53:00;;;;;;;52.10;19.62;;;;;;;8.13;97.57;97868.48;4043539;86;21161;-89
2022/04/25 05:59:02;;;;;;;39.08;18.35;;;;;;;8.34;97.35;97866.42;4011942;87;21188;-93
2022/04/25 06:05:05;;;;;;;30.30;19.50;;;;;;;8.58;97.61;97867.05;4010787;87;21652;-88
2022/04/25 06:11:08;;;;;;;32.20;19.23;;;;;;;8.79;97.44;97869.77;4010578;87;21089;-88
2022/04/25 06:17:13;;;;;;;29.70;18.57;;;;;;;9.00;97.32;97868.42;4019430;87;21108;-87
2022/04/25 06:23:12;;;;;;;31.02;17.77;;;;;;;9.19;96.97;97865.28;4014282;87;21087;-89
2022/04/25 06:29:14;;;;;;;21.17;15.08;;;;;;;9.35;97.38;97871.88;4022951;86;21767;-88
2022/04/25 06:35:16;;;;;;;22.58;13.65;;;;;;;9.55;97.92;97865.40;4024371;87;21137;-90
2022/04/25 06:41:17;;;;;;;17.77;12.93;;;;;;;9.69;97.44;97870.82;4031326;86;21059;-87
2022/04/25 06:47:19;;;;;;;20.37;13.98;;;;;;;9.75;97.26;97877.43;4023822;87;21091;-89
2022/04/25 06:53:20;;;;;;;18.98;12.65;;;;;;;9.81;97.17;97873.69;4017788;87;22198;-88
2022/04/25 06:59:22;;;;;;;15.25;10.60;;;;;;;9.89;97.55;97877.38;4016600;87;22355;-88
2022/04/25 07:05:24;;;;;;;17.42;12.07;;;;;;;10.01;97.45;97865.20;4021235;87;21627;-87
2022/04/25 07:11:26;;;;;;;14.87;9.48;;;;;;;10.10;97.28;97856.79;4022089;87;21680;-89
2022/04/25 07:17:28;;;;;;;13.80;9.53;;;;;;;10.11;97.03;97858.95;4026902;87;22196;-87
2022/04/25 07:29:52;;;;;;;12.68;7.95;;;;;;;10.61;96.89;97854.72;4021991;87;21067;-90
2022/04/25 07:35:54;;;;;;;9.60;5.47;;;;;;;10.79;96.17;97856.14;4076252;86;21071;-87
2022/04/25 07:41:55;;;;;;;11.63;6.35;;;;;;;11.09;95.55;97850.02;4067635;86;21098;-89
2022/04/25 07:47:56;;;;;;;11.48;6.15;;;;;;;11.25;95.20;97869.44;4077966;85;21047;-89
2022/04/25 07:53:58;;;;;;;12.30;6.50;;;;;;;11.58;95.58;97881.63;4068152;85;21620;-86
2022/04/25 07:59:59;;;;;;;6.72;4.58;;;;;;;11.73;94.89;97890.69;4062359;86;21043;-88
2022/04/25 08:06:00;;;;;;;7.75;4.15;;;;;;;11.66;94.02;97901.75;4068331;86;21094;-88
2022/04/25 08:18:22;;;;;;;10.63;5.10;;;;;;;11.31;94.51;97900.69;4056695;86;21070;-90
2022/04/25 08:24:24;;;;;;;13.40;7.30;;;;;;;11.05;94.87;97898.58;4077148;86;21126;-86
2022/04/25 08:30:26;;;;;;;10.43;6.85;;;;;;;11.02;95.18;97900.15;4034174;86;21117;-91
2022/04/25 08:36:28;;;;;;;29.25;14.58;;;;;;;11.04;95.91;97897.00;4054062;86;21078;-91
2022/04/25 08:42:31;;;;;;;25.35;14.07;;;;;;;11.07;95.46;97901.09;4002593;87;21565;-89
2022/04/25 08:48:32;;;;;;;23.05;14.45;;;;;;;11.20;96.51;97901.98;4079471;86;21555;-88
2022/04/25 08:54:35;;;;;;;20.00;11.10;;;;;;;11.57;96.75;97910.23;4063209;86;21140;-89
2022/04/25 09:00:37;;;;;;;21.97;11.93;;;;;;;11.83;96.14;97909.59;4056870;86;22018;-90
2022/04/25 09:06:39;;;;;;;13.70;10.63;;;;;;;12.03;96.18;97913.27;4150227;83;31100;-90
2022/04/25 09:12:49;;;;;;;20.82;13.60;;;;;;;12.14;95.60;97916.08;4150848;85;21075;-87
2022/04/25 09:18:48;;;;;;;14.78;7.50;;;;;;;12.23;95.41;97926.56;4168927;83;21583;-88
2022/04/25 09:24:51;;;;;;;9.88;6.15;;;;;;;12.36;95.73;97927.55;4168493;84;21123;-87
2022/04/25 09:30:59;;;;;;;7.35;5.53;;;;;;;12.50;95.66;97928.16;4178852;83;21630;-91
2022/04/25 09:37:00;;;;;;;9.28;5.70;;;;;;;12.67;95.52;97933.82;4161362;84;21107;-90
2022/04/25 09:43:18;;;;;;;10.28;5.65;;;;;;;12.93;95.50;97936.57;4172446;83;22169;-87
2022/04/25 09:49:24;;;;;;;;;;;;;;;12.98;94.52;97938.86;4163045;84;21053;-88
2022/04/25 09:55:30;;;;;;;9.70;5.62;;;;;;;13.00;93.89;97937.06;4153670;85;20508;-91
2022/04/25 10:01:37;;;;;;;9.23;5.83;;;;;;;12.99;93.98;97934.12;4157363;84;21006;-89
2022/04/25 10:07:41;;;;;;;10.60;6.45;;;;;;;12.94;93.84;97941.45;4160403;83;21059;-91
2022/04/25 10:13:43;;;;;;;12.23;8.15;;;;;;;12.80;93.05;97942.44;4281376;82;21717;-89
2022/04/25 10:19:45;;;;;;;10.40;8.23;;;;;;;12.76;93.54;97938.20;4284638;82;21088;-86
2022/04/25 10:26:03;;;;;;;13.20;9.23;;;;;;;12.79;93.43;97944.23;4302921;82;21036;-87
2022/04/25 10:32:04;;;;;;;9.40;7.53;;;;;;;12.84;93.50;97947.89;4301799;81;21100;-88
2022/04/25 10:38:47;;;;;;;10.20;6.75;;;;;;;12.77;92.81;97941.11;4118365;84;21059;-91
2022/04/25 10:44:53;;;;;;;10.30;6.58;;;;;;;13.09;92.95;97948.33;4113711;85;21132;-92
2022/04/25 10:51:16;;;;;;;13.45;8.48;;;;;;;13.27;91.68;97944.10;4121420;85;21090;-90
2022/04/25 10:57:18;;;;;;;15.58;8.43;;;;;;;13.55;91.88;97943.63;4125227;85;21119;-89
2022/04/25 11:03:24;;;;;;;11.88;7.80;;;;;;;13.64;88.92;97952.72;4128657;85;21095;-86
2022/04/25 11:09:39;;;;;;;11.60;4.87;;;;;;;13.94;89.07;97948.41;4129208;85;21099;-89
2022/04/25 11:15:42;;;;;;;9.60;4.60;;;;;;;14.39;89.25;97945.41;4167860;83;21020;-88
2022/04/25 11:21:53;;;;;;;12.78;5.62;;;;;;;14.67;87.69;97960.53;4195359;83;21040;-88
2022/04/25 11:28:04;;;;;;;8.70;4.10;;;;;;;14.68;86.95;97960.70;4172908;84;21046;-89
2022/04/25 11:34:11;;;;;;;6.97;4.78;;;;;;;14.83;87.00;97966.85;4179327;84;21043;-87
2022/04/25 11:40:12;;;;;;;28.15;7.45;;;;;;;14.79;82.61;97975.02;4189755;83;21047;-89
2022/04/25 11:46:16;;;;;;;9.98;4.85;;;;;;;14.78;86.21;97978.41;4194797;83;21075;-89
2022/04/25 11:52:20;;;;;;;11.35;5.80;;;;;;;14.86;85.29;97987.28;4205730;83;21163;-88
2022/04/25 11:58:30;;;;;;;7.72;4.15;;;;;;;14.63;84.03;97988.74;4226367;83;22457;-89
2022/04/25 12:04:33;;;;;;;3.80;2.30;;;;;;;14.46;83.42;97991.27;4236960;83;21071;-88
2022/04/25 12:17:05;;;;;;;3.83;2.15;;;;;;;14.67;80.94;97994.38;4238158;83;21099;-89
2022/04/25 12:23:07;;;;;;;5.75;1.87;;;;;;;15.10;81.19;97995.58;4242472;83;21583;-88
2022/04/25 12:29:11;;;;;;;1.20;0.93;;;;;;;15.69;79.59;97998.94;4234570;83;21070;-89
2022/04/25 12:35:19;;;;;;;3.55;1.55;;;;;;;16.94;76.22;97997.27;4229368;83;21067;-89
2022/04/25 12:41:24;;;;;;;1.70;0.93;;;;;;;17.35;77.83;97997.19;4222965;83;21067;-91
2022/04/25 12:47:27;;;;;;;3.33;2.27;;;;;;;17.53;77.45;98009.08;4219976;83;21067;-91
2022/04/25 12:53:41;;;;;;;5.90;2.40;;;;;;;17.75;75.68;98015.47;4230655;83;21102;-89
2022/04/25 12:59:57;;;;;;;2.95;1.75;;;;;;;17.34;73.82;98023.28;4222425;83;21058;-88
2022/04/25 13:05:58;;;;;;;7.00;2.00;;;;;;;17.77;74.21;98017.98;4226617;83;21680;-90
2022/04/25 13:12:03;;;;;;;3.02;1.77;;;;;;;18.24;73.84;98018.73;4223078;83;21043;-88
2022/04/25 13:18:05;;;;;;;2.17;1.50;;;;;;;18.49;72.80;98012.34;4231370;83;21167;-88
2022/04/25 13:24:07;;;;;;;9.28;3.15;;;;;;;18.57;70.79;98018.55;4234878;83;21042;-89
2022/04/25 13:30:14;;;;;;;8.58;4.60;;;;;;;18.44;68.44;98024.78;4175487;84;21047;-89
2022/04/25 13:36:15;;;;;;;8.90;5.45;;;;;;;17.97;69.42;98025.41;4174878;84;22063;-94
2022/04/25 13:42:17;;;;;;;5.87;3.50;;;;;;;17.33;68.85;98038.94;4203912;83;21048;-91
2022/04/25 13:48:19;;;;;;;4.42;2.52;;;;;;;16.40;69.19;98057.98;4178593;84;22386;-90
2022/04/25 13:54:20;;;;;;;3.20;1.95;;;;;;;15.81;68.94;98080.22;4217482;83;21083;-92
2022/04/25 14:00:21;;;;;;;3.37;2.08;;;;;;;15.35;68.72;98094.45;4186308;83;21107;-92
2022/04/25 14:06:23;;;;;;;3.52;2.08;;;;;;;15.39;68.11;98112.34;4195207;83;21052;-95
2022/04/25 14:12:24;;;;;;;2.77;1.60;;;;;;;15.28;69.18;98112.55;4198456;83;22021;-89
2022/04/25 14:18:26;;;;;;;3.00;1.95;;;;;;;15.10;68.90;98119.02;4188626;83;21072;-88
2022/04/25 14:24:27;;;;;;;3.90;1.92;;;;;;;14.89;69.05;98124.95;4198733;83;21958;-89
2022/04/25 14:30:30;;;;;;;4.45;2.83;;;;;;;14.98;69.59;98129.91;4206690;83;21084;-90
2022/04/25 14:36:32;;;;;;;3.98;2.60;;;;;;;15.32;69.37;98133.13;4191520;83;21043;-93
2022/04/25 14:42:33;;;;;;;5.42;3.52;;;;;;;15.42;69.80;98136.30;4202012;83;21049;-93
2022/04/25 14:48:34;;;;;;;11.63;7.12;;;;;;;15.61;70.09;98130.73;4190119;83;22038;-91
2022/04/25 14:54:40;;;;;;;9.10;6.05;;;;;;;15.49;69.73;98136.13;4198871;83;21372;-89
2022/04/25 15:00:45;;;;;;;7.37;5.60;;;;;;;15.36;70.55;98145.64;4230888;83;21571;-89
2022/04/25 15:06:49;;;;;;;12.73;8.43;;;;;;;15.51;70.69;98153.83;4231340;83;21055;-88
2022/04/25 15:12:51;;;;;;;9.23;7.55;;;;;;;16.04;70.14;98154.57;4174618;84;21964;-90
2022/04/25 15:18:52;;;;;;;12.88;8.05;;;;;;;15.86;70.00;98154.23;4304668;82;21998;-89
2022/04/25 15:24:55;;;;;;;18.73;13.93;;;;;;;15.67;70.17;98172.39;4311642;82;21115;-88
2022/04/25 15:30:57;;;;;;;14.95;13.28;;;;;;;15.18;70.52;98178.33;4303819;82;21064;-89
2022/04/25 15:36:58;;;;;;;16.80;13.00;;;;;;;14.89;70.70;98177.93;4309726;82;21989;-89
2022/04/25 15:43:00;;;;;;;15.50;12.73;;;;;;;14.54;70.32;98177.97;4304072;82;21072;-89
2022/04/25 15:49:01;;;;;;;16.30;11.73;;;;;;;14.26;71.09;98177.67;4308409;82;21651;-90
2022/04/25 16:01:24;;;;;;;23.18;14.38;;;;;;;14.11;71.86;98186.13;4301039;82;21080;-89
2022/04/25 16:07:25;;;;;;;17.67;14.47;;;;;;;14.08;72.47;98188.93;4296520;82;21068;-88
2022/04/25 16:13:27;;;;;;;16.12;12.15;;;;;;;14.12;72.54;98186.92;4289998;82;21041;-89
2022/04/25 16:19:28;;;;;;;12.18;9.85;;;;;;;13.87;72.51;98203.02;4300014;82;21981;-91
2022/04/25 16:25:30;;;;;;;11.48;8.20;;;;;;;13.66;72.73;98199.97;4301029;82;22207;-88
2022/04/25 16:31:31;;;;;;;13.88;8.98;;;;;;;13.48;73.13;98209.66;4163865;83;21602;-87
2022/04/25 16:37:33;;;;;;;18.02;8.53;;;;;;;13.38;72.79;98216.84;4173250;84;21539;-89
2022/04/25 16:43:37;;;;;;;12.60;6.47;;;;;;;13.18;72.70;98219.25;4172091;83;21127;-89
2022/04/25 16:49:41;;;;;;;12.58;8.33;;;;;;;13.09;72.87;98227.97;4172284;83;21109;-89
2022/04/25 16:55:42;;;;;;;9.65;5.70;;;;;;;12.95;72.83;98246.56;4020835;84;10000220;-88
2022/04/25 17:01:44;;;;;;;7.08;4.60;;;;;;;12.73;72.36;98250.12;4119349;85;21138;-91
2022/04/25 17:07:47;;;;;;;6.05;3.80;;;;;;;12.50;72.12;98260.30;4184071;82;21083;-91
2022/04/25 17:13:49;;;;;;;10.40;4.75;;;;;;;12.37;72.37;98263.34;4180240;84;22021;-89
2022/04/25 17:19:50;;;;;;;8.88;5.67;;;;;;;12.24;72.46;98274.63;4185324;83;21206;-87
2022/04/25 17:25:52;;;;;;;8.20;5.33;;;;;;;12.02;72.86;98273.20;4179399;83;22087;-90
